Time,TemperatureF,DewpointF,PressureIn,WindDirection,WindDirectionDegrees,WindSpeedMPH,WindSpeedGustMPH,Humidity,HourlyPrecipIn,Conditions,Clouds,dailyrainin,SoftwareType,DateUTC
2013-01-03 00:04:00,27.5,21.6,30.36,NNE,22,0.0,0.0,78,0.00,,---,0.00,VWS V14.01,2013-01-03 06:04:00,
2013-01-03 00:09:00,27.4,21.7,30.33,NNE,22,0.0,0.0,79,0.00,,---,0.00,VWS V14.01,2013-01-03 06:09:00,
2013-01-03 00:14:00,27.2,21.2,30.33,NNE,22,0.0,0.0,78,0.00,,---,0.00,VWS V14.01,2013-01-03 06:14:00,
2013-01-03 00:19:00,26.8,20.9,30.33,NNE,22,0.0,0.0,78,0.00,,---,0.00,VWS V14.01,2013-01-03 06:19:00,
2013-01-03 00:24:00,27.2,21.2,30.36,NNE,22,0.0,0.0,78,0.00,,---,0.00,VWS V14.01,2013-01-03 06:24:00,
2013-01-03 00:29:00,26.8,20.9,30.36,NNE,22,0.0,0.0,78,0.00,,---,0.00,VWS V14.01,2013-01-03 06:29:00,
2013-01-03 00:34:00,26.5,20.9,30.36,NNE,22,0.0,0.0,79,0.00,,---,0.00,VWS V14.01,2013-01-03 06:34:00,
2013-01-03 00:39:00,26.5,20.9,30.36,NNE,22,0.0,0.0,79,0.00,,---,0.00,VWS V14.01,2013-01-03 06:39:00,
2013-01-03 00:44:00,26.1,20.5,30.36,NNE,22,0.0,0.0,79,0.00,,---,0.00,VWS V14.01,2013-01-03 06:44:00,
2013-01-03 00:52:00,25.9,20.6,30.36,NNE,22,0.0,0.0,80,0.00,,---,0.00,VWS V14.01,2013-01-03 06:52:00,
2013-01-03 00:57:00,25.9,20.3,30.36,NNE,22,0.0,0.0,79,0.00,,---,0.00,VWS V14.01,2013-01-03 06:57:00,
2013-01-03 01:02:00,25.9,20.3,30.36,NNE,22,0.0,0.0,79,0.00,,---,0.00,VWS V14.01,2013-01-03 07:02:00,
2013-01-03 01:07:00,25.9,20.6,30.36,NNE,22,0.0,0.0,80,0.00,,---,0.00,VWS V14.01,2013-01-03 07:07:00,
2013-01-03 01:12:00,25.9,20.9,30.36,NNE,22,0.0,0.0,81,0.00,,---,0.00,VWS V14.01,2013-01-03 07:12:00,
2013-01-03 01:17:00,25.8,21.0,30.36,NNE,22,0.0,0.0,82,0.00,,---,0.00,VWS V14.01,2013-01-03 07:17:00,
2013-01-03 01:22:00,25.8,20.8,30.36,NNE,22,0.0,0.0,81,0.00,,---,0.00,VWS V14.01,2013-01-03 07:22:00,
2013-01-03 01:27:00,25.8,20.8,30.36,NNE,22,0.0,0.0,81,0.00,,---,0.00,VWS V14.01,2013-01-03 07:27:00,
2013-01-03 01:32:00,25.6,20.6,30.36,NNE,22,0.0,0.0,81,0.00,,---,0.00,VWS V14.01,2013-01-03 07:32:00,
2013-01-03 01:37:00,25.6,20.6,30.36,NNE,22,0.0,0.0,81,0.00,,---,0.00,VWS V14.01,2013-01-03 07:37:00,
2013-01-03 01:43:00,25.4,20.4,30.36,NNE,22,0.0,0.0,81,0.00,,---,0.00,VWS V14.01,2013-01-03 07:43:00,
2013-01-03 01:48:00,25.6,20.9,30.36,NNE,22,0.0,0.0,82,0.00,,---,0.00,VWS V14.01,2013-01-03 07:48:00,
2013-01-03 01:53:00,25.2,20.8,30.36,NNE,22,0.0,0.0,83,0.00,,---,0.00,VWS V14.01,2013-01-03 07:53:00,
2013-01-03 01:58:00,25.4,21.3,30.36,NNE,22,0.0,0.0,84,0.00,,---,0.00,VWS V14.01,2013-01-03 07:58:00,
2013-01-03 02:03:00,25.6,21.7,30.36,NNE,22,0.0,0.0,85,0.00,,---,0.00,VWS V14.01,2013-01-03 08:03:00,
2013-01-03 02:08:00,25.6,21.7,30.36,NNE,22,0.0,0.0,85,0.00,,---,0.00,VWS V14.01,2013-01-03 08:08:00,
2013-01-03 02:13:00,25.4,21.3,30.36,NNE,22,0.0,0.0,84,0.00,,---,0.00,VWS V14.01,2013-01-03 08:13:00,
2013-01-03 02:18:00,25.4,21.3,30.36,WNW,292,0.0,0.0,84,0.00,,---,0.00,VWS V14.01,2013-01-03 08:18:00,
2013-01-03 02:23:00,25.4,21.3,30.36,WNW,292,0.0,0.0,84,0.00,,---,0.00,VWS V14.01,2013-01-03 08:23:00,
2013-01-03 02:28:00,25.4,21.3,30.36,WNW,292,0.0,0.0,84,0.00,,---,0.00,VWS V14.01,2013-01-03 08:28:00,
2013-01-03 02:33:00,25.2,21.4,30.36,WNW,292,0.0,0.0,85,0.00,,---,0.00,VWS V14.01,2013-01-03 08:33:00,
2013-01-03 02:38:00,25.1,21.2,30.36,WNW,292,0.0,0.0,85,0.00,,---,0.00,VWS V14.01,2013-01-03 08:38:00,
2013-01-03 02:43:00,25.1,21.2,30.36,WNW,292,0.0,0.0,85,0.00,,---,0.00,VWS V14.01,2013-01-03 08:43:00,
2013-01-03 02:48:00,24.9,20.7,30.36,WNW,292,0.0,0.0,84,0.00,,---,0.00,VWS V14.01,2013-01-03 08:48:00,
2013-01-03 02:53:00,24.7,20.8,30.36,WNW,292,0.0,0.0,85,0.00,,---,0.00,VWS V14.01,2013-01-03 08:53:00,
2013-01-03 02:58:00,24.5,20.7,30.36,WNW,292,0.0,0.0,85,0.00,,---,0.00,VWS V14.01,2013-01-03 08:58:00,
2013-01-03 03:03:00,24.7,20.6,30.36,WNW,292,0.0,0.0,84,0.00,,---,0.00,VWS V14.01,2013-01-03 09:03:00,
2013-01-03 03:08:00,24.7,20.6,30.36,WNW,292,0.0,0.0,84,0.00,,---,0.00,VWS V14.01,2013-01-03 09:08:00,
2013-01-03 03:13:00,24.4,20.5,30.36,WNW,292,0.0,0.0,85,0.00,,---,0.00,VWS V14.01,2013-01-03 09:13:00,
2013-01-03 03:18:00,24.4,20.5,30.36,NW,315,0.0,0.0,85,0.00,,---,0.00,VWS V14.01,2013-01-03 09:18:00,
2013-01-03 03:23:00,24.4,20.8,30.36,NW,315,1.1,1.1,86,0.00,,---,0.00,VWS V14.01,2013-01-03 09:23:00,
2013-01-03 03:28:00,24.2,20.6,30.36,NW,315,1.3,1.3,86,0.00,,---,0.00,VWS V14.01,2013-01-03 09:28:00,
2013-01-03 03:33:00,24.2,20.3,30.36,NW,315,0.0,0.0,85,0.00,,---,0.00,VWS V14.01,2013-01-03 09:33:00,
2013-01-03 03:38:00,24.2,20.3,30.36,NW,315,0.0,0.0,85,0.00,,---,0.00,VWS V14.01,2013-01-03 09:38:00,
2013-01-03 03:43:00,24.2,20.6,30.36,NW,315,0.0,0.0,86,0.00,,---,0.00,VWS V14.01,2013-01-03 09:43:00,
2013-01-03 03:48:00,24.0,20.4,30.36,NW,315,0.0,0.0,86,0.00,,---,0.00,VWS V14.01,2013-01-03 09:48:00,
2013-01-03 03:53:00,24.2,20.6,30.36,WNW,292,0.0,0.0,86,0.00,,---,0.00,VWS V14.01,2013-01-03 09:53:00,
2013-01-03 03:58:00,24.0,20.1,30.36,WNW,292,0.0,0.0,85,0.00,,---,0.00,VWS V14.01,2013-01-03 09:58:00,
2013-01-03 04:03:00,24.2,20.6,30.36,WNW,292,0.0,0.0,86,0.00,,---,0.00,VWS V14.01,2013-01-03 10:03:00,
2013-01-03 04:08:00,24.0,20.1,30.36,WNW,292,0.0,0.0,85,0.00,,---,0.00,VWS V14.01,2013-01-03 10:08:00,
2013-01-03 04:13:00,23.8,20.2,30.36,WNW,292,0.0,0.0,86,0.00,,---,0.00,VWS V14.01,2013-01-03 10:13:00,
2013-01-03 04:18:00,23.8,20.2,30.36,WNW,292,0.0,0.0,86,0.00,,---,0.00,VWS V14.01,2013-01-03 10:18:00,
2013-01-03 04:23:00,24.0,20.4,30.36,WNW,292,0.0,0.0,86,0.00,,---,0.00,VWS V14.01,2013-01-03 10:23:00,
2013-01-03 04:28:00,24.2,20.6,30.36,WNW,292,0.0,0.0,86,0.00,,---,0.00,VWS V14.01,2013-01-03 10:28:00,
2013-01-03 04:33:00,24.5,21.2,30.36,WNW,292,0.0,0.0,87,0.00,,---,0.00,VWS V14.01,2013-01-03 10:33:00,
2013-01-03 04:38:00,24.9,21.8,30.36,WNW,292,2.0,2.0,88,0.00,,---,0.00,VWS V14.01,2013-01-03 10:38:00,
2013-01-03 04:43:00,25.2,22.7,30.36,WNW,292,2.5,2.5,90,0.00,,---,0.00,VWS V14.01,2013-01-03 10:43:00,
2013-01-03 04:48:00,25.6,23.1,30.36,WNW,292,2.5,2.5,90,0.00,,---,0.00,VWS V14.01,2013-01-03 10:48:00,
2013-01-03 04:53:00,25.9,23.4,30.36,WNW,292,2.5,2.5,90,0.00,,---,0.00,VWS V14.01,2013-01-03 10:53:00,
2013-01-03 04:58:00,26.1,23.9,30.36,West,270,1.1,1.1,91,0.00,,---,0.00,VWS V14.01,2013-01-03 10:58:00,
2013-01-03 05:03:00,26.6,24.4,30.36,West,270,1.1,1.1,91,0.00,,---,0.00,VWS V14.01,2013-01-03 11:03:00,
2013-01-03 05:08:00,26.8,24.6,30.36,West,270,1.1,1.1,91,0.00,,---,0.00,VWS V14.01,2013-01-03 11:08:00,
2013-01-03 05:13:00,27.0,24.5,30.36,SSW,202,1.3,1.3,90,0.00,,---,0.00,VWS V14.01,2013-01-03 11:13:00,
2013-01-03 05:18:00,27.2,24.6,30.36,South,180,0.9,0.9,90,0.00,,---,0.00,VWS V14.01,2013-01-03 11:18:00,
2013-01-03 05:23:00,27.4,24.8,30.39,NNW,338,2.0,2.0,90,0.00,,---,0.00,VWS V14.01,2013-01-03 11:23:00,
2013-01-03 05:28:00,27.5,25.0,30.39,NNW,338,2.0,2.0,90,0.00,,---,0.00,VWS V14.01,2013-01-03 11:28:00,
2013-01-03 05:33:00,27.5,25.0,30.39,NW,315,1.3,1.3,90,0.00,,---,0.00,VWS V14.01,2013-01-03 11:33:00,
2013-01-03 05:38:00,27.7,25.2,30.39,NNW,338,1.6,1.6,90,0.00,,---,0.00,VWS V14.01,2013-01-03 11:38:00,
2013-01-03 05:43:00,27.7,25.2,30.39,NNW,338,1.6,1.6,90,0.00,,---,0.00,VWS V14.01,2013-01-03 11:43:00,
2013-01-03 05:48:00,27.7,25.2,30.39,NNW,338,1.6,1.6,90,0.00,,---,0.00,VWS V14.01,2013-01-03 11:48:00,
2013-01-03 05:53:00,27.7,25.2,30.39,WNW,292,1.3,1.3,90,0.00,,---,0.00,VWS V14.01,2013-01-03 11:53:00,
2013-01-03 05:58:00,27.9,25.4,30.39,WNW,292,1.3,1.3,90,0.00,,---,0.00,VWS V14.01,2013-01-03 11:58:00,
2013-01-03 06:04:00,27.9,25.4,30.39,WNW,292,2.7,2.7,90,0.00,,---,0.00,VWS V14.01,2013-01-03 12:04:00,
2013-01-03 06:09:00,27.9,25.4,30.39,NNW,338,2.5,2.7,90,0.00,,---,0.00,VWS V14.01,2013-01-03 12:09:00,
2013-01-03 06:14:00,28.1,25.5,30.39,WNW,292,3.4,3.4,90,0.00,,---,0.00,VWS V14.01,2013-01-03 12:14:00,
2013-01-03 06:19:00,28.2,25.4,30.39,WNW,292,2.0,2.0,89,0.00,,---,0.00,VWS V14.01,2013-01-03 12:19:00,
2013-01-03 06:24:00,28.2,25.4,30.39,NNW,338,2.5,2.5,89,0.00,,---,0.00,VWS V14.01,2013-01-03 12:24:00,
2013-01-03 06:29:00,28.2,25.4,30.39,NNW,338,2.0,2.0,89,0.00,,---,0.00,VWS V14.01,2013-01-03 12:29:00,
2013-01-03 06:34:00,28.2,25.2,30.39,NNW,338,2.0,2.0,88,0.00,,---,0.00,VWS V14.01,2013-01-03 12:34:00,
2013-01-03 06:39:00,28.1,25.0,30.41,NNW,338,2.0,2.0,88,0.00,,---,0.00,VWS V14.01,2013-01-03 12:39:00,
2013-01-03 06:44:00,28.1,24.7,30.41,WNW,292,0.0,0.0,87,0.00,,---,0.00,VWS V14.01,2013-01-03 12:44:00,
2013-01-03 06:49:00,28.2,24.9,30.41,WNW,292,0.0,0.0,87,0.00,,---,0.00,VWS V14.01,2013-01-03 12:49:00,
2013-01-03 06:54:00,28.2,24.9,30.41,WNW,292,0.0,0.0,87,0.00,,---,0.00,VWS V14.01,2013-01-03 12:54:00,
2013-01-03 06:59:00,28.2,24.9,30.41,WSW,248,0.0,0.0,87,0.00,,---,0.00,VWS V14.01,2013-01-03 12:59:00,
2013-01-03 07:04:00,28.2,24.6,30.41,WSW,248,0.0,0.0,86,0.00,,---,0.00,VWS V14.01,2013-01-03 13:04:00,
2013-01-03 07:09:00,28.4,24.8,30.41,WSW,248,0.0,0.0,86,0.00,,---,0.00,VWS V14.01,2013-01-03 13:09:00,
2013-01-03 07:14:00,28.4,24.8,30.41,WSW,248,0.0,0.0,86,0.00,,---,0.00,VWS V14.01,2013-01-03 13:14:00,
2013-01-03 07:19:00,28.6,25.0,30.41,WSW,248,0.0,0.0,86,0.00,,---,0.00,VWS V14.01,2013-01-03 13:19:00,
2013-01-03 07:24:00,28.6,25.0,30.41,NNW,338,1.3,1.3,86,0.00,,---,0.00,VWS V14.01,2013-01-03 13:24:00,
2013-01-03 07:29:00,28.8,25.1,30.41,North,0,0.0,0.0,86,0.00,,---,0.00,VWS V14.01,2013-01-03 13:29:00,
2013-01-03 07:34:00,29.0,25.3,30.41,NNW,338,0.0,0.0,86,0.00,,---,0.00,VWS V14.01,2013-01-03 13:34:00,
2013-01-03 07:39:00,29.1,25.5,30.41,NNW,338,0.0,0.0,86,0.00,,---,0.00,VWS V14.01,2013-01-03 13:39:00,
2013-01-03 07:44:00,29.3,25.6,30.41,SSW,202,0.0,0.0,86,0.00,,---,0.00,VWS V14.01,2013-01-03 13:44:00,
2013-01-03 07:49:00,29.7,26.0,30.41,SSW,202,1.1,2.2,86,0.00,,---,0.00,VWS V14.01,2013-01-03 13:49:00,
2013-01-03 07:54:00,30.0,26.4,30.41,SE,135,0.0,0.0,86,0.00,,---,0.00,VWS V14.01,2013-01-03 13:54:00,
2013-01-03 07:59:00,30.2,26.5,30.41,NNW,338,1.1,1.1,86,0.00,,---,0.00,VWS V14.01,2013-01-03 13:59:00,
2013-01-03 08:04:00,30.5,26.6,30.41,NW,315,2.9,2.9,85,0.00,,---,0.00,VWS V14.01,2013-01-03 14:04:00,
2013-01-03 08:09:00,30.7,25.9,30.44,WSW,248,2.7,4.0,82,0.00,,---,0.00,VWS V14.01,2013-01-03 14:09:00,
2013-01-03 08:14:00,30.9,25.5,30.44,NNW,338,3.4,3.4,80,0.00,,---,0.00,VWS V14.01,2013-01-03 14:14:00,
2013-01-03 08:19:00,31.3,25.8,30.44,WNW,292,2.0,2.7,80,0.00,,---,0.00,VWS V14.01,2013-01-03 14:19:00,
2013-01-03 08:24:00,31.6,26.2,30.41,WNW,292,1.3,1.3,80,0.00,,---,0.00,VWS V14.01,2013-01-03 14:24:00,
2013-01-03 08:29:00,32.0,26.2,30.41,WNW,292,1.6,1.6,79,0.00,,---,0.00,VWS V14.01,2013-01-03 14:29:00,
2013-01-03 08:34:00,32.2,26.1,30.41,WSW,248,1.6,1.6,78,0.00,,---,0.00,VWS V14.01,2013-01-03 14:34:00,
2013-01-03 08:39:00,32.3,26.2,30.44,WNW,292,2.7,2.7,78,0.00,,---,0.00,VWS V14.01,2013-01-03 14:39:00,
2013-01-03 08:44:00,32.5,26.1,30.44,North,0,2.2,2.2,77,0.00,,---,0.00,VWS V14.01,2013-01-03 14:44:00,
2013-01-03 08:49:00,32.7,26.3,30.44,West,270,3.6,3.6,77,0.00,,---,0.00,VWS V14.01,2013-01-03 14:49:00,
2013-01-03 08:54:00,33.0,26.3,30.44,WNW,292,2.9,2.9,76,0.00,,---,0.00,VWS V14.01,2013-01-03 14:54:00,
2013-01-03 08:59:00,33.2,26.5,30.44,WNW,292,1.3,1.3,76,0.00,,---,0.00,VWS V14.01,2013-01-03 14:59:00,
2013-01-03 09:04:00,33.6,26.5,30.44,West,270,2.2,2.2,75,0.00,,---,0.00,VWS V14.01,2013-01-03 15:04:00,
2013-01-03 09:09:00,34.5,27.7,30.44,West,270,3.1,3.1,76,0.00,,---,0.00,VWS V14.01,2013-01-03 15:09:00,
2013-01-03 09:14:00,35.5,28.4,30.44,NNE,22,0.0,2.0,75,0.00,,---,0.00,VWS V14.01,2013-01-03 15:14:00,
2013-01-03 09:19:00,36.4,28.6,30.44,WSW,248,3.6,3.6,73,0.00,,---,0.00,VWS V14.01,2013-01-03 15:19:00,
2013-01-03 09:24:00,37.8,28.2,30.44,WNW,292,2.0,2.0,68,0.00,,---,0.00,VWS V14.01,2013-01-03 15:24:00,
2013-01-03 09:30:00,40.7,30.9,30.44,SW,225,0.0,0.9,68,0.00,,---,0.00,VWS V14.01,2013-01-03 15:30:00,
2013-01-03 09:34:00,43.0,32.4,30.44,SE,135,0.0,1.1,66,0.00,,---,0.00,VWS V14.01,2013-01-03 15:34:00,
2013-01-03 09:40:00,43.7,31.1,30.44,WSW,248,2.7,2.7,61,0.00,,---,0.00,VWS V14.01,2013-01-03 15:40:00,
2013-01-03 09:45:00,43.5,29.3,30.44,NNW,338,2.5,2.5,57,0.00,,---,0.00,VWS V14.01,2013-01-03 15:45:00,
2013-01-03 09:50:00,43.7,28.6,30.44,NW,315,3.6,3.6,55,0.00,,---,0.00,VWS V14.01,2013-01-03 15:50:00,
2013-01-03 09:55:00,43.1,27.6,30.44,North,0,1.6,2.0,54,0.00,,---,0.00,VWS V14.01,2013-01-03 15:55:00,
2013-01-03 10:00:00,44.4,27.9,30.44,NNE,22,4.7,4.9,52,0.00,,---,0.00,VWS V14.01,2013-01-03 16:00:00,
2013-01-03 10:05:00,42.8,25.0,30.44,NNE,22,8.7,8.7,49,0.00,,---,0.00,VWS V14.01,2013-01-03 16:05:00,
2013-01-03 10:10:00,43.1,25.3,30.47,North,0,4.3,4.7,49,0.00,,---,0.00,VWS V14.01,2013-01-03 16:10:00,
2013-01-03 10:15:00,43.0,25.1,30.47,North,0,6.9,9.6,49,0.00,,---,0.00,VWS V14.01,2013-01-03 16:15:00,
2013-01-03 10:20:00,43.0,24.6,30.47,NNW,338,6.5,6.5,48,0.00,,---,0.00,VWS V14.01,2013-01-03 16:20:00,
2013-01-03 10:25:00,43.1,25.3,30.47,NNE,22,3.8,3.8,49,0.00,,---,0.00,VWS V14.01,2013-01-03 16:25:00,
2013-01-03 10:30:00,42.4,24.1,30.47,NNE,22,3.8,8.7,48,0.00,,---,0.00,VWS V14.01,2013-01-03 16:30:00,
2013-01-03 10:35:00,43.0,25.1,30.47,NNW,338,4.9,4.9,49,0.00,,---,0.00,VWS V14.01,2013-01-03 16:35:00,
2013-01-03 10:40:00,42.6,24.8,30.47,NNE,22,6.3,6.3,49,0.00,,---,0.00,VWS V14.01,2013-01-03 16:40:00,
2013-01-03 10:45:00,42.2,24.5,30.47,North,0,5.4,7.8,49,0.00,,---,0.00,VWS V14.01,2013-01-03 16:45:00,
2013-01-03 10:50:00,42.2,24.5,30.47,North,0,5.4,7.4,49,0.00,,---,0.00,VWS V14.01,2013-01-03 16:50:00,
2013-01-03 10:55:00,42.6,24.8,30.47,NNW,338,6.5,8.5,49,0.00,,---,0.00,VWS V14.01,2013-01-03 16:55:00,
2013-01-03 11:00:00,42.8,25.0,30.47,NW,315,7.2,7.2,49,0.00,,---,0.00,VWS V14.01,2013-01-03 17:00:00,
2013-01-03 11:05:00,42.4,24.6,30.47,NW,315,7.2,7.2,49,0.00,,---,0.00,VWS V14.01,2013-01-03 17:05:00,
2013-01-03 11:10:00,42.4,24.1,30.47,NW,315,7.2,7.2,48,0.00,,---,0.00,VWS V14.01,2013-01-03 17:10:00,
2013-01-03 11:15:00,43.3,25.5,30.47,NW,315,7.2,7.2,49,0.00,,---,0.00,VWS V14.01,2013-01-03 17:15:00,
2013-01-03 11:20:00,44.2,25.8,30.47,NW,315,7.2,7.2,48,0.00,,---,0.00,VWS V14.01,2013-01-03 17:20:00,
2013-01-03 11:25:00,44.4,25.9,30.47,NW,315,7.2,7.2,48,0.00,,---,0.00,VWS V14.01,2013-01-03 17:25:00,
2013-01-03 11:30:00,44.4,25.9,30.47,NW,315,7.2,7.2,48,0.00,,---,0.00,VWS V14.01,2013-01-03 17:30:00,
2013-01-03 11:35:00,44.0,25.6,30.47,NW,315,7.2,7.2,48,0.00,,---,0.00,VWS V14.01,2013-01-03 17:35:00,
2013-01-03 11:40:00,43.7,25.3,30.47,NW,315,7.2,7.2,48,0.00,,---,0.00,VWS V14.01,2013-01-03 17:40:00,
2013-01-03 11:45:00,43.1,24.8,30.47,NW,315,7.2,7.2,48,0.00,,---,0.00,VWS V14.01,2013-01-03 17:45:00,
2013-01-03 11:50:00,42.4,24.1,30.47,NNW,338,6.5,6.7,48,0.00,,---,0.00,VWS V14.01,2013-01-03 17:50:00,
2013-01-03 11:55:00,42.8,24.5,30.47,North,0,3.8,4.3,48,0.00,,---,0.00,VWS V14.01,2013-01-03 17:55:00,
2013-01-03 12:00:00,43.0,25.1,30.47,North,0,3.1,4.3,49,0.00,,---,0.00,VWS V14.01,2013-01-03 18:00:00,
2013-01-03 12:05:00,43.0,25.1,30.47,North,0,3.1,3.1,49,0.00,,---,0.00,VWS V14.01,2013-01-03 18:05:00,
2013-01-03 12:10:00,43.0,25.1,30.47,North,0,1.3,1.6,49,0.00,,---,0.00,VWS V14.01,2013-01-03 18:10:00,
2013-01-03 12:15:00,42.8,25.0,30.47,North,0,2.5,3.1,49,0.00,,---,0.00,VWS V14.01,2013-01-03 18:15:00,
2013-01-03 12:20:00,42.8,25.0,30.47,NNE,22,3.6,4.0,49,0.00,,---,0.00,VWS V14.01,2013-01-03 18:20:00,
2013-01-03 12:25:00,43.0,25.1,30.44,North,0,4.0,4.0,49,0.00,,---,0.00,VWS V14.01,2013-01-03 18:25:00,
2013-01-03 12:30:00,43.0,25.1,30.44,NNW,338,4.3,4.3,49,0.00,,---,0.00,VWS V14.01,2013-01-03 18:30:00,
2013-01-03 12:35:00,43.0,25.1,30.44,WNW,292,3.8,4.0,49,0.00,,---,0.00,VWS V14.01,2013-01-03 18:35:00,
2013-01-03 12:40:00,42.8,25.0,30.44,NNW,338,5.8,6.9,49,0.00,,---,0.00,VWS V14.01,2013-01-03 18:40:00,
2013-01-03 12:45:00,43.0,25.1,30.44,NNW,338,4.9,4.9,49,0.00,,---,0.00,VWS V14.01,2013-01-03 18:45:00,
2013-01-03 12:50:00,43.3,25.5,30.44,NW,315,3.4,5.8,49,0.00,,---,0.00,VWS V14.01,2013-01-03 18:50:00,
2013-01-03 12:55:00,43.0,24.6,30.41,North,0,6.5,6.5,48,0.00,,---,0.00,VWS V14.01,2013-01-03 18:55:00,
2013-01-03 13:00:00,43.3,25.0,30.41,North,0,6.5,6.5,48,0.00,,---,0.00,VWS V14.01,2013-01-03 19:00:00,
2013-01-03 13:05:00,43.0,24.6,30.41,North,0,6.5,6.5,48,0.00,,---,0.00,VWS V14.01,2013-01-03 19:05:00,
2013-01-03 13:10:00,43.1,24.8,30.41,North,0,6.5,6.5,48,0.00,,---,0.00,VWS V14.01,2013-01-03 19:10:00,
2013-01-03 13:15:00,42.8,24.5,30.41,North,0,6.5,6.5,48,0.00,,---,0.00,VWS V14.01,2013-01-03 19:15:00,
2013-01-03 13:52:00,42.8,24.5,30.44,North,0,6.5,6.5,48,0.00,,---,0.00,VWS V14.01,2013-01-03 19:52:00,
2013-01-03 13:57:00,42.6,24.3,30.44,North,0,6.5,6.5,48,0.00,,---,0.00,VWS V14.01,2013-01-03 19:57:00,
2013-01-03 14:02:00,42.4,24.1,30.44,North,0,6.5,6.5,48,0.00,,---,0.00,VWS V14.01,2013-01-03 20:02:00,
2013-01-03 14:07:00,42.8,24.5,30.41,North,0,6.5,6.5,48,0.00,,---,0.00,VWS V14.01,2013-01-03 20:07:00,
2013-01-03 14:12:00,43.0,24.6,30.41,NW,315,4.3,7.8,48,0.00,,---,0.00,VWS V14.01,2013-01-03 20:12:00,
2013-01-03 14:17:00,42.8,24.5,30.41,North,0,5.8,10.1,48,0.00,,---,0.00,VWS V14.01,2013-01-03 20:17:00,
2013-01-03 14:22:00,42.6,24.3,30.41,North,0,6.5,7.8,48,0.00,,---,0.00,VWS V14.01,2013-01-03 20:22:00,
2013-01-03 14:27:00,42.6,24.3,30.41,North,0,7.6,7.6,48,0.00,,---,0.00,VWS V14.01,2013-01-03 20:27:00,
2013-01-03 14:32:00,42.4,24.1,30.41,NW,315,10.5,10.5,48,0.00,,---,0.00,VWS V14.01,2013-01-03 20:32:00,
2013-01-03 14:37:00,42.4,24.1,30.41,NNW,338,11.0,11.0,48,0.00,,---,0.00,VWS V14.01,2013-01-03 20:37:00,
2013-01-03 14:42:00,42.4,24.1,30.41,North,0,6.0,7.8,48,0.00,,---,0.00,VWS V14.01,2013-01-03 20:42:00,
2013-01-03 14:47:00,42.4,24.1,30.41,NNW,338,6.5,6.9,48,0.00,,---,0.00,VWS V14.01,2013-01-03 20:47:00,
2013-01-03 14:52:00,42.4,24.1,30.41,NNW,338,3.6,6.0,48,0.00,,---,0.00,VWS V14.01,2013-01-03 20:52:00,
2013-01-03 14:57:00,42.4,24.1,30.41,North,0,7.8,7.8,48,0.00,,---,0.00,VWS V14.01,2013-01-03 20:57:00,
2013-01-03 15:02:00,42.4,24.1,30.41,North,0,2.0,5.8,48,0.00,,---,0.00,VWS V14.01,2013-01-03 21:02:00,
2013-01-03 15:07:00,42.4,23.6,30.39,North,0,7.2,7.6,47,0.00,,---,0.00,VWS V14.01,2013-01-03 21:07:00,
2013-01-03 15:12:00,42.4,23.6,30.39,NE,45,5.6,5.6,47,0.00,,---,0.00,VWS V14.01,2013-01-03 21:12:00,
2013-01-03 15:17:00,42.4,23.6,30.39,NNE,22,3.6,4.9,47,0.00,,---,0.00,VWS V14.01,2013-01-03 21:17:00,
2013-01-03 15:22:00,42.1,23.8,30.44,North,0,6.7,8.1,48,0.00,,---,0.00,VWS V14.01,2013-01-03 21:22:00,
2013-01-03 15:27:00,42.1,23.8,30.44,NNE,22,2.5,3.6,48,0.00,,---,0.00,VWS V14.01,2013-01-03 21:27:00,
2013-01-03 15:32:00,42.1,23.8,30.44,NW,315,2.9,3.8,48,0.00,,---,0.00,VWS V14.01,2013-01-03 21:32:00,
2013-01-03 15:37:00,42.6,24.3,30.41,NNE,22,3.1,3.8,48,0.00,,---,0.00,VWS V14.01,2013-01-03 21:37:00,
2013-01-03 15:42:00,42.6,24.3,30.41,NNW,338,4.9,6.3,48,0.00,,---,0.00,VWS V14.01,2013-01-03 21:42:00,
2013-01-03 15:47:00,42.8,24.5,30.41,NW,315,6.5,6.5,48,0.00,,---,0.00,VWS V14.01,2013-01-03 21:47:00,
2013-01-03 15:52:00,42.6,24.3,30.41,North,0,3.8,3.8,48,0.00,,---,0.00,VWS V14.01,2013-01-03 21:52:00,
2013-01-03 15:57:00,42.4,24.1,30.41,NW,315,3.1,4.7,48,0.00,,---,0.00,VWS V14.01,2013-01-03 21:57:00,
2013-01-03 16:03:00,42.2,24.0,30.41,ENE,68,2.7,4.9,48,0.00,,---,0.00,VWS V14.01,2013-01-03 22:03:00,
2013-01-03 16:08:00,42.4,24.1,30.41,NNW,338,4.0,5.4,48,0.00,,---,0.00,VWS V14.01,2013-01-03 22:08:00,
2013-01-03 16:13:00,42.4,24.1,30.41,North,0,4.3,4.3,48,0.00,,---,0.00,VWS V14.01,2013-01-03 22:13:00,
2013-01-03 16:18:00,42.4,24.1,30.41,North,0,4.3,4.3,48,0.00,,---,0.00,VWS V14.01,2013-01-03 22:18:00,
2013-01-03 16:23:00,42.4,24.1,30.41,North,0,4.3,4.3,48,0.00,,---,0.00,VWS V14.01,2013-01-03 22:23:00,
2013-01-03 16:28:00,42.2,24.0,30.41,North,0,4.3,4.3,48,0.00,,---,0.00,VWS V14.01,2013-01-03 22:28:00,
2013-01-03 16:33:00,42.2,24.0,30.41,North,0,4.3,4.3,48,0.00,,---,0.00,VWS V14.01,2013-01-03 22:33:00,
2013-01-03 16:38:00,42.2,24.0,30.41,North,0,4.3,4.3,48,0.00,,---,0.00,VWS V14.01,2013-01-03 22:38:00,
2013-01-03 16:43:00,42.1,23.8,30.41,NNW,338,4.9,5.8,48,0.00,,---,0.00,VWS V14.01,2013-01-03 22:43:00,
2013-01-03 16:48:00,42.1,23.8,30.41,NNW,338,3.4,4.7,48,0.00,,---,0.00,VWS V14.01,2013-01-03 22:48:00,
2013-01-03 16:53:00,42.1,23.8,30.41,NNW,338,3.8,4.3,48,0.00,,---,0.00,VWS V14.01,2013-01-03 22:53:00,
2013-01-03 16:58:00,42.1,23.8,30.41,NW,315,3.1,5.6,48,0.00,,---,0.00,VWS V14.01,2013-01-03 22:58:00,
2013-01-03 17:03:00,42.1,23.8,30.41,NNW,338,2.5,3.6,48,0.00,,---,0.00,VWS V14.01,2013-01-03 23:03:00,
2013-01-03 17:08:00,42.1,23.8,30.41,NNW,338,3.1,4.9,48,0.00,,---,0.00,VWS V14.01,2013-01-03 23:08:00,
2013-01-03 17:13:00,42.1,23.8,30.41,NNW,338,3.8,4.0,48,0.00,,---,0.00,VWS V14.01,2013-01-03 23:13:00,
2013-01-03 17:18:00,42.1,23.8,30.41,North,0,5.8,6.0,48,0.00,,---,0.00,VWS V14.01,2013-01-03 23:18:00,
2013-01-03 17:23:00,41.9,23.7,30.41,NNW,338,5.8,6.3,48,0.00,,---,0.00,VWS V14.01,2013-01-03 23:23:00,
2013-01-03 17:28:00,41.9,23.7,30.41,North,0,3.4,3.4,48,0.00,,---,0.00,VWS V14.01,2013-01-03 23:28:00,
2013-01-03 17:33:00,41.9,24.1,30.41,North,0,3.4,3.4,49,0.00,,---,0.00,VWS V14.01,2013-01-03 23:33:00,
2013-01-03 17:38:00,41.7,24.0,30.41,North,0,3.4,3.4,49,0.00,,---,0.00,VWS V14.01,2013-01-03 23:38:00,
2013-01-03 17:43:00,41.7,24.0,30.41,North,0,3.4,3.4,49,0.00,,---,0.00,VWS V14.01,2013-01-03 23:43:00,
2013-01-03 17:48:00,41.7,24.0,30.41,North,0,3.4,3.4,49,0.00,,---,0.00,VWS V14.01,2013-01-03 23:48:00,
2013-01-03 17:53:00,41.7,24.0,30.41,North,0,3.4,3.4,49,0.00,,---,0.00,VWS V14.01,2013-01-03 23:53:00,
2013-01-03 17:58:00,41.5,23.8,30.41,North,0,3.4,3.4,49,0.00,,---,0.00,VWS V14.01,2013-01-03 23:58:00,
2013-01-03 18:03:00,41.5,23.8,30.41,North,0,3.4,3.4,49,0.00,,---,0.00,VWS V14.01,2013-01-04 00:03:00,
2013-01-03 18:08:00,41.5,23.8,30.41,North,0,3.4,3.4,49,0.00,,---,0.00,VWS V14.01,2013-01-04 00:08:00,
2013-01-03 18:13:00,41.5,23.8,30.41,North,0,3.4,3.4,49,0.00,,---,0.00,VWS V14.01,2013-01-04 00:13:00,
2013-01-03 18:18:00,41.4,23.7,30.41,North,0,3.4,3.4,49,0.00,,---,0.00,VWS V14.01,2013-01-04 00:18:00,
2013-01-03 18:23:00,41.4,23.7,30.41,NNW,338,0.0,2.0,49,0.00,,---,0.00,VWS V14.01,2013-01-04 00:23:00,
2013-01-03 18:28:00,41.4,24.1,30.41,North,0,3.1,3.1,50,0.00,,---,0.00,VWS V14.01,2013-01-04 00:28:00,
2013-01-03 18:33:00,41.4,24.1,30.41,North,0,1.6,2.0,50,0.00,,---,0.00,VWS V14.01,2013-01-04 00:33:00,
2013-01-03 18:38:00,41.4,24.1,30.41,NW,315,1.6,4.0,50,0.00,,---,0.00,VWS V14.01,2013-01-04 00:38:00,
2013-01-03 18:43:00,41.2,24.0,30.41,NNW,338,1.6,2.5,50,0.00,,---,0.00,VWS V14.01,2013-01-04 00:43:00,
2013-01-03 18:48:00,41.2,24.0,30.41,North,0,1.1,2.5,50,0.00,,---,0.00,VWS V14.01,2013-01-04 00:48:00,
2013-01-03 18:53:00,41.2,24.0,30.41,NNW,338,0.0,2.0,50,0.00,,---,0.00,VWS V14.01,2013-01-04 00:53:00,
2013-01-03 18:58:00,41.2,24.0,30.41,SE,135,0.0,0.0,50,0.00,,---,0.00,VWS V14.01,2013-01-04 00:58:00,
2013-01-03 19:03:00,41.0,23.8,30.41,SE,135,0.0,0.0,50,0.00,,---,0.00,VWS V14.01,2013-01-04 01:03:00,
2013-01-03 19:08:00,41.0,24.3,30.41,SE,135,0.0,0.0,51,0.00,,---,0.00,VWS V14.01,2013-01-04 01:08:00,
2013-01-03 19:13:00,40.8,24.1,30.41,SE,135,0.0,0.0,51,0.00,,---,0.00,VWS V14.01,2013-01-04 01:13:00,
2013-01-03 19:18:00,41.0,24.3,30.41,ESE,112,2.0,2.5,51,0.00,,---,0.00,VWS V14.01,2013-01-04 01:18:00,
2013-01-03 19:23:00,41.0,24.3,30.41,NE,45,0.0,0.9,51,0.00,,---,0.00,VWS V14.01,2013-01-04 01:23:00,
2013-01-03 19:28:00,40.8,24.1,30.41,SE,135,0.0,0.9,51,0.00,,---,0.00,VWS V14.01,2013-01-04 01:28:00,
2013-01-03 19:33:00,40.8,24.1,30.41,SE,135,0.0,0.0,51,0.00,,---,0.00,VWS V14.01,2013-01-04 01:33:00,
2013-01-03 19:38:00,40.8,24.1,30.44,NE,45,0.0,1.3,51,0.00,,---,0.00,VWS V14.01,2013-01-04 01:38:00,
2013-01-03 19:43:00,40.8,24.1,30.44,West,270,0.0,0.0,51,0.00,,---,0.00,VWS V14.01,2013-01-04 01:43:00,
2013-01-03 19:48:00,40.7,24.0,30.44,South,180,0.0,0.0,51,0.00,,---,0.00,VWS V14.01,2013-01-04 01:48:00,
2013-01-03 19:53:00,40.7,24.0,30.44,South,180,0.0,0.0,51,0.00,,---,0.00,VWS V14.01,2013-01-04 01:53:00,
2013-01-03 19:58:00,40.7,24.4,30.44,South,180,0.0,0.0,52,0.00,,---,0.00,VWS V14.01,2013-01-04 01:58:00,
2013-01-03 20:03:00,40.5,24.3,30.44,SE,135,0.0,0.0,52,0.00,,---,0.00,VWS V14.01,2013-01-04 02:03:00,
2013-01-03 20:08:00,40.5,24.3,30.41,SE,135,0.0,0.0,52,0.00,,---,0.00,VWS V14.01,2013-01-04 02:08:00,
2013-01-03 20:13:00,40.5,24.3,30.41,East,90,0.9,0.9,52,0.00,,---,0.00,VWS V14.01,2013-01-04 02:13:00,
2013-01-03 20:18:00,40.5,24.3,30.41,East,90,0.9,0.9,52,0.00,,---,0.00,VWS V14.01,2013-01-04 02:18:00,
2013-01-03 20:23:00,40.5,24.3,30.41,East,90,0.9,0.9,52,0.00,,---,0.00,VWS V14.01,2013-01-04 02:23:00,
2013-01-03 20:28:00,40.5,24.7,30.41,East,90,0.9,0.9,53,0.00,,---,0.00,VWS V14.01,2013-01-04 02:28:00,
2013-01-03 20:33:00,40.5,24.7,30.41,East,90,0.9,0.9,53,0.00,,---,0.00,VWS V14.01,2013-01-04 02:33:00,
2013-01-03 20:38:00,40.5,24.7,30.41,East,90,0.9,0.9,53,0.00,,---,0.00,VWS V14.01,2013-01-04 02:38:00,
2013-01-03 20:43:00,40.5,24.7,30.41,East,90,0.9,0.9,53,0.00,,---,0.00,VWS V14.01,2013-01-04 02:43:00,
2013-01-03 20:48:00,40.5,24.7,30.41,WNW,292,2.2,2.2,53,0.00,,---,0.00,VWS V14.01,2013-01-04 02:48:00,
2013-01-03 20:53:00,40.7,24.4,30.44,West,270,1.1,2.7,52,0.00,,---,0.00,VWS V14.01,2013-01-04 02:53:00,
2013-01-03 20:58:00,40.7,24.4,30.44,West,270,1.1,1.6,52,0.00,,---,0.00,VWS V14.01,2013-01-04 02:58:00,
2013-01-03 21:03:00,40.7,24.4,30.44,NW,315,0.0,0.0,52,0.00,,---,0.00,VWS V14.01,2013-01-04 03:03:00,
2013-01-03 21:08:00,40.7,24.9,30.44,WNW,292,0.9,1.6,53,0.00,,---,0.00,VWS V14.01,2013-01-04 03:08:00,
2013-01-03 21:13:00,40.5,24.7,30.44,WNW,292,0.0,0.0,53,0.00,,---,0.00,VWS V14.01,2013-01-04 03:13:00,
2013-01-03 21:18:00,40.5,24.7,30.44,WNW,292,0.0,0.0,53,0.00,,---,0.00,VWS V14.01,2013-01-04 03:18:00,
2013-01-03 21:23:00,40.3,24.5,30.44,West,270,0.0,0.0,53,0.00,,---,0.00,VWS V14.01,2013-01-04 03:23:00,
2013-01-03 21:28:00,40.3,24.5,30.44,West,270,0.0,0.0,53,0.00,,---,0.00,VWS V14.01,2013-01-04 03:28:00,
2013-01-03 21:33:00,40.3,24.5,30.44,WNW,292,0.0,0.0,53,0.00,,---,0.00,VWS V14.01,2013-01-04 03:33:00,
2013-01-03 21:38:00,40.3,25.0,30.44,WNW,292,0.0,0.0,54,0.00,,---,0.00,VWS V14.01,2013-01-04 03:38:00,
2013-01-03 21:43:00,40.1,24.8,30.44,WNW,292,0.0,0.0,54,0.00,,---,0.00,VWS V14.01,2013-01-04 03:43:00,
2013-01-03 21:48:00,40.1,24.8,30.44,WNW,292,0.0,0.0,54,0.00,,---,0.00,VWS V14.01,2013-01-04 03:48:00,
2013-01-03 21:53:00,40.1,24.8,30.41,WNW,292,0.0,0.0,54,0.00,,---,0.00,VWS V14.01,2013-01-04 03:53:00,
2013-01-03 21:58:00,40.1,24.8,30.41,NW,315,0.0,0.0,54,0.00,,---,0.00,VWS V14.01,2013-01-04 03:58:00,
2013-01-03 22:03:00,40.3,25.0,30.41,WNW,292,0.0,0.0,54,0.00,,---,0.00,VWS V14.01,2013-01-04 04:03:00,
2013-01-03 22:08:00,40.3,25.0,30.41,SSE,158,0.0,0.0,54,0.00,,---,0.00,VWS V14.01,2013-01-04 04:08:00,
2013-01-03 22:13:00,40.3,25.0,30.41,SE,135,0.0,0.0,54,0.00,,---,0.00,VWS V14.01,2013-01-04 04:13:00,
2013-01-03 22:18:00,40.3,25.4,30.41,SE,135,0.0,0.0,55,0.00,,---,0.00,VWS V14.01,2013-01-04 04:18:00,
2013-01-03 22:23:00,40.3,25.0,30.39,SE,135,0.0,0.0,54,0.00,,---,0.00,VWS V14.01,2013-01-04 04:23:00,
2013-01-03 22:28:00,40.3,25.4,30.39,SE,135,0.0,0.0,55,0.00,,---,0.00,VWS V14.01,2013-01-04 04:28:00,
2013-01-03 22:33:00,40.3,25.4,30.39,SE,135,0.0,0.0,55,0.00,,---,0.00,VWS V14.01,2013-01-04 04:33:00,
2013-01-03 22:38:00,40.3,25.0,30.41,East,90,2.2,2.2,54,0.00,,---,0.00,VWS V14.01,2013-01-04 04:38:00,
2013-01-03 22:43:00,40.3,25.0,30.41,ESE,112,0.0,0.0,54,0.00,,---,0.00,VWS V14.01,2013-01-04 04:43:00,
2013-01-03 22:48:00,40.3,25.0,30.41,ESE,112,0.0,0.0,54,0.00,,---,0.00,VWS V14.01,2013-01-04 04:48:00,
2013-01-03 22:53:00,40.3,25.0,30.41,ESE,112,0.0,0.0,54,0.00,,---,0.00,VWS V14.01,2013-01-04 04:53:00,
2013-01-03 22:59:00,40.3,25.0,30.41,East,90,0.0,0.0,54,0.00,,---,0.00,VWS V14.01,2013-01-04 04:59:00,
2013-01-03 23:00:00,40.3,25.0,30.41,East,90,0.0,0.0,54,0.00,,---,0.00,VWS V14.01,2013-01-04 05:00:00,
2013-01-03 23:04:00,40.3,25.0,30.41,East,90,0.0,0.0,54,0.00,,---,0.00,VWS V14.01,2013-01-04 05:04:00,
2013-01-03 23:09:00,40.3,25.0,30.41,SE,135,0.0,0.0,54,0.00,,---,0.00,VWS V14.01,2013-01-04 05:09:00,
2013-01-03 23:14:00,40.3,25.0,30.41,SE,135,0.0,0.0,54,0.00,,---,0.00,VWS V14.01,2013-01-04 05:14:00,
2013-01-03 23:19:00,40.3,25.0,30.41,North,0,2.5,2.5,54,0.00,,---,0.00,VWS V14.01,2013-01-04 05:19:00,
2013-01-03 23:24:00,40.3,25.0,30.44,NE,45,0.9,0.9,54,0.00,,---,0.00,VWS V14.01,2013-01-04 05:24:00,
2013-01-03 23:29:00,40.5,24.7,30.44,NNE,22,0.0,1.6,53,0.00,,---,0.00,VWS V14.01,2013-01-04 05:29:00,
2013-01-03 23:34:00,40.3,24.5,30.44,North,0,0.0,0.0,53,0.00,,---,0.00,VWS V14.01,2013-01-04 05:34:00,
2013-01-03 23:39:00,40.3,24.5,30.44,SSW,202,0.0,0.0,53,0.00,,---,0.00,VWS V14.01,2013-01-04 05:39:00,
2013-01-03 23:44:00,40.3,24.5,30.44,NE,45,0.0,0.0,53,0.00,,---,0.00,VWS V14.01,2013-01-04 05:44:00,
2013-01-03 23:49:00,40.3,24.5,30.44,North,0,0.0,0.0,53,0.00,,---,0.00,VWS V14.01,2013-01-04 05:49:00,
2013-01-03 23:54:00,40.1,24.4,30.44,East,90,1.1,1.1,53,0.00,,---,0.00,VWS V14.01,2013-01-04 05:54:00,
2013-01-03 23:59:00,40.3,24.5,30.44,NNE,22,0.9,2.0,53,0.00,,---,0.00,VWS V14.01,2013-01-04 05:59:00,